createdAt,value
2022-09-05T00:05:23.337Z,2.25
2022-09-05T00:35:50.786Z,2.28
2022-09-05T01:06:12.628Z,2.45
2022-09-05T01:36:24.009Z,2.72
2022-09-05T02:06:46.128Z,2.90
2022-09-05T02:36:54.302Z,2.92
2022-09-05T03:07:08.844Z,2.92
2022-09-05T03:37:37.557Z,2.90
2022-09-05T04:08:23.962Z,2.53
2022-09-05T04:38:13.812Z,3.00
2022-09-05T05:08:27.942Z,2.92
2022-09-05T05:38:49.111Z,3.10
2022-09-05T06:14:51.068Z,3.10
2022-09-05T06:40:19.834Z,2.92
2022-09-05T07:10:38.319Z,2.97
2022-09-05T07:40:49.755Z,2.53
2022-09-05T08:11:14.502Z,2.10
2022-09-05T08:41:33.434Z,2.03
2022-09-05T09:11:54.609Z,1.92
2022-09-05T09:42:13.539Z,1.80
2022-09-05T10:13:07.668Z,1.27
2022-09-05T10:43:17.776Z,1.27
2022-09-05T11:13:37.071Z,1.20
2022-09-05T11:44:00.997Z,1.30
2022-09-05T12:14:33.309Z,1.40
2022-09-05T12:44:49.887Z,1.40
2022-09-05T13:15:14.047Z,1.10
2022-09-05T13:45:22.902Z,1.10
2022-09-05T14:15:36.516Z,1.00
2022-09-05T15:16:10.133Z,1.13
2022-09-05T15:46:14.633Z,1.38
2022-09-05T16:20:53.057Z,1.63
2022-09-05T16:46:48.734Z,1.20
2022-09-05T17:47:09.126Z,1.30
2022-09-05T18:17:59.181Z,1.30
2022-09-05T18:48:04.154Z,1.77
2022-09-05T19:18:27.015Z,2.60
2022-09-05T19:48:35.300Z,1.52
2022-09-05T20:18:42.084Z,1.63
2022-09-05T20:54:05.110Z,1.90
2022-09-05T21:19:24.023Z,1.70
2022-09-05T21:49:31.298Z,1.65
2022-09-05T22:19:38.080Z,1.50
2022-09-05T22:49:42.229Z,1.77
2022-09-05T23:19:46.320Z,1.75
2022-09-05T23:49:50.445Z,1.95
